sensor_id;sensor_type;location;lat;lon;timestamp;temperature;humidity
59309;DHT22;48433;53.016;-2.260;2024-01-11T00:00:41;10.20;99.90
59309;DHT22;48433;53.016;-2.260;2024-01-11T00:03:09;10.20;99.90
59309;DHT22;48433;53.016;-2.260;2024-01-11T00:05:37;10.20;99.90
59309;DHT22;48433;53.016;-2.260;2024-01-11T00:08:06;10.20;99.90
59309;DHT22;48433;53.016;-2.260;2024-01-11T00:10:33;10.30;99.90
59309;DHT22;48433;53.016;-2.260;2024-01-11T00:13:01;10.20;99.90
59309;DHT22;48433;53.016;-2.260;2024-01-11T00:15:28;10.10;99.90
59309;DHT22;48433;53.016;-2.260;2024-01-11T00:17:56;10.10;99.90
59309;DHT22;48433;53.016;-2.260;2024-01-11T00:20:24;10.10;99.90
59309;DHT22;48433;53.016;-2.260;2024-01-11T00:22:51;10.00;99.90
59309;DHT22;48433;53.016;-2.260;2024-01-11T00:25:18;10.00;99.90
59309;DHT22;48433;53.016;-2.260;2024-01-11T00:27:46;9.90;99.90
59309;DHT22;48433;53.016;-2.260;2024-01-11T00:30:13;9.90;99.90
59309;DHT22;48433;53.016;-2.260;2024-01-11T00:32:40;9.80;99.90
59309;DHT22;48433;53.016;-2.260;2024-01-11T00:35:08;9.80;99.90
59309;DHT22;48433;53.016;-2.260;2024-01-11T00:37:35;9.80;99.90
59309;DHT22;48433;53.016;-2.260;2024-01-11T00:40:03;9.80;99.90
59309;DHT22;48433;53.016;-2.260;2024-01-11T00:42:31;9.80;99.90
59309;DHT22;48433;53.016;-2.260;2024-01-11T00:44:59;9.80;99.90
59309;DHT22;48433;53.016;-2.260;2024-01-11T00:47:26;9.80;99.90
59309;DHT22;48433;53.016;-2.260;2024-01-11T00:49:54;9.80;99.90
59309;DHT22;48433;53.016;-2.260;2024-01-11T00:52:21;9.80;99.90
59309;DHT22;48433;53.016;-2.260;2024-01-11T00:54:49;9.80;99.90
59309;DHT22;48433;53.016;-2.260;2024-01-11T00:57:16;9.80;99.90
59309;DHT22;48433;53.016;-2.260;2024-01-11T00:59:47;9.80;99.90
59309;DHT22;48433;53.016;-2.260;2024-01-11T01:02:16;9.80;99.90
59309;DHT22;48433;53.016;-2.260;2024-01-11T01:04:44;7.40;99.90
59309;DHT22;48433;53.016;-2.260;2024-01-11T01:07:11;9.80;99.90
59309;DHT22;48433;53.016;-2.260;2024-01-11T01:09:38;9.70;99.90
59309;DHT22;48433;53.016;-2.260;2024-01-11T01:12:06;9.70;99.90
59309;DHT22;48433;53.016;-2.260;2024-01-11T01:14:33;9.70;99.90
59309;DHT22;48433;53.016;-2.260;2024-01-11T01:17:00;9.70;99.90
59309;DHT22;48433;53.016;-2.260;2024-01-11T01:19:28;9.60;99.90
59309;DHT22;48433;53.016;-2.260;2024-01-11T01:21:55;9.70;99.90
59309;DHT22;48433;53.016;-2.260;2024-01-11T01:24:22;9.60;99.90
59309;DHT22;48433;53.016;-2.260;2024-01-11T01:26:50;9.60;99.90
59309;DHT22;48433;53.016;-2.260;2024-01-11T01:29:17;9.60;99.90
59309;DHT22;48433;53.016;-2.260;2024-01-11T01:31:45;9.50;99.90
59309;DHT22;48433;53.016;-2.260;2024-01-11T01:34:12;9.50;99.90
59309;DHT22;48433;53.016;-2.260;2024-01-11T01:36:41;9.50;99.90
59309;DHT22;48433;53.016;-2.260;2024-01-11T01:39:09;9.40;99.90
59309;DHT22;48433;53.016;-2.260;2024-01-11T01:41:36;9.40;99.90
59309;DHT22;48433;53.016;-2.260;2024-01-11T01:44:04;9.40;99.90
59309;DHT22;48433;53.016;-2.260;2024-01-11T01:46:31;9.30;99.90
59309;DHT22;48433;53.016;-2.260;2024-01-11T01:48:59;9.30;99.90
59309;DHT22;48433;53.016;-2.260;2024-01-11T01:51:26;9.30;99.90
59309;DHT22;48433;53.016;-2.260;2024-01-11T01:53:56;9.30;99.90
59309;DHT22;48433;53.016;-2.260;2024-01-11T01:56:23;9.30;99.90
59309;DHT22;48433;53.016;-2.260;2024-01-11T01:58:51;9.40;99.90
59309;DHT22;48433;53.016;-2.260;2024-01-11T02:01:19;9.40;99.90
59309;DHT22;48433;53.016;-2.260;2024-01-11T02:03:49;9.50;99.90
59309;DHT22;48433;53.016;-2.260;2024-01-11T02:06:17;9.50;99.90
59309;DHT22;48433;53.016;-2.260;2024-01-11T02:08:45;9.60;99.90
59309;DHT22;48433;53.016;-2.260;2024-01-11T02:11:13;9.60;99.90
59309;DHT22;48433;53.016;-2.260;2024-01-11T02:13:40;9.60;99.90
59309;DHT22;48433;53.016;-2.260;2024-01-11T02:16:08;9.70;99.90
59309;DHT22;48433;53.016;-2.260;2024-01-11T02:18:35;9.70;99.90
59309;DHT22;48433;53.016;-2.260;2024-01-11T02:21:03;9.80;99.90
59309;DHT22;48433;53.016;-2.260;2024-01-11T02:23:32;9.80;99.90
59309;DHT22;48433;53.016;-2.260;2024-01-11T02:26:00;9.80;99.90
59309;DHT22;48433;53.016;-2.260;2024-01-11T02:28:27;9.80;99.90
59309;DHT22;48433;53.016;-2.260;2024-01-11T02:30:54;9.80;99.90
59309;DHT22;48433;53.016;-2.260;2024-01-11T02:33:22;9.80;99.90
59309;DHT22;48433;53.016;-2.260;2024-01-11T02:35:49;9.80;99.90
59309;DHT22;48433;53.016;-2.260;2024-01-11T02:38:18;9.70;99.90
59309;DHT22;48433;53.016;-2.260;2024-01-11T02:40:45;9.60;99.90
59309;DHT22;48433;53.016;-2.260;2024-01-11T02:43:13;9.60;99.90
59309;DHT22;48433;53.016;-2.260;2024-01-11T02:45:41;9.60;99.90
59309;DHT22;48433;53.016;-2.260;2024-01-11T02:48:08;9.50;99.90
59309;DHT22;48433;53.016;-2.260;2024-01-11T02:50:35;9.50;99.90
59309;DHT22;48433;53.016;-2.260;2024-01-11T02:53:03;9.50;99.90
59309;DHT22;48433;53.016;-2.260;2024-01-11T02:55:30;9.50;99.90
59309;DHT22;48433;53.016;-2.260;2024-01-11T02:57:58;9.60;99.90
59309;DHT22;48433;53.016;-2.260;2024-01-11T03:00:25;9.50;99.90
59309;DHT22;48433;53.016;-2.260;2024-01-11T03:02:52;9.50;99.90
59309;DHT22;48433;53.016;-2.260;2024-01-11T03:05:21;9.50;99.90
59309;DHT22;48433;53.016;-2.260;2024-01-11T03:07:48;9.50;99.90
59309;DHT22;48433;53.016;-2.260;2024-01-11T03:10:15;9.40;99.90
59309;DHT22;48433;53.016;-2.260;2024-01-11T03:12:43;9.40;99.90
59309;DHT22;48433;53.016;-2.260;2024-01-11T03:15:11;9.40;99.90
59309;DHT22;48433;53.016;-2.260;2024-01-11T03:17:39;9.30;99.90
59309;DHT22;48433;53.016;-2.260;2024-01-11T03:20:06;9.40;99.90
59309;DHT22;48433;53.016;-2.260;2024-01-11T03:22:34;9.40;99.90
59309;DHT22;48433;53.016;-2.260;2024-01-11T03:25:01;9.40;99.90
59309;DHT22;48433;53.016;-2.260;2024-01-11T03:27:29;9.40;99.90
59309;DHT22;48433;53.016;-2.260;2024-01-11T03:29:57;9.40;99.90
59309;DHT22;48433;53.016;-2.260;2024-01-11T03:32:24;9.40;99.90
59309;DHT22;48433;53.016;-2.260;2024-01-11T03:34:52;9.40;99.90
59309;DHT22;48433;53.016;-2.260;2024-01-11T03:37:19;9.40;99.90
59309;DHT22;48433;53.016;-2.260;2024-01-11T03:39:46;9.30;99.90
59309;DHT22;48433;53.016;-2.260;2024-01-11T03:42:13;9.30;99.90
59309;DHT22;48433;53.016;-2.260;2024-01-11T03:44:41;9.30;99.90
59309;DHT22;48433;53.016;-2.260;2024-01-11T03:47:08;9.30;99.90
59309;DHT22;48433;53.016;-2.260;2024-01-11T03:49:35;9.20;99.90
59309;DHT22;48433;53.016;-2.260;2024-01-11T03:52:03;9.20;99.90
59309;DHT22;48433;53.016;-2.260;2024-01-11T03:54:30;9.30;99.90
59309;DHT22;48433;53.016;-2.260;2024-01-11T03:56:58;9.20;99.90
59309;DHT22;48433;53.016;-2.260;2024-01-11T03:59:25;9.30;99.90
59309;DHT22;48433;53.016;-2.260;2024-01-11T04:01:53;9.30;99.90
59309;DHT22;48433;53.016;-2.260;2024-01-11T04:04:20;9.30;99.90
59309;DHT22;48433;53.016;-2.260;2024-01-11T04:06:49;9.30;99.90
59309;DHT22;48433;53.016;-2.260;2024-01-11T04:09:16;9.30;99.90
59309;DHT22;48433;53.016;-2.260;2024-01-11T04:11:44;9.40;99.90
59309;DHT22;48433;53.016;-2.260;2024-01-11T04:14:11;9.40;99.90
59309;DHT22;48433;53.016;-2.260;2024-01-11T04:16:40;9.40;99.90
59309;DHT22;48433;53.016;-2.260;2024-01-11T04:19:08;9.40;99.90
59309;DHT22;48433;53.016;-2.260;2024-01-11T04:21:36;9.50;99.90
59309;DHT22;48433;53.016;-2.260;2024-01-11T04:24:05;9.50;99.90
59309;DHT22;48433;53.016;-2.260;2024-01-11T04:26:33;9.50;99.90
59309;DHT22;48433;53.016;-2.260;2024-01-11T04:29:01;9.50;99.90
59309;DHT22;48433;53.016;-2.260;2024-01-11T04:31:29;9.50;99.90
59309;DHT22;48433;53.016;-2.260;2024-01-11T04:33:56;9.50;99.90
59309;DHT22;48433;53.016;-2.260;2024-01-11T04:36:24;9.50;99.90
59309;DHT22;48433;53.016;-2.260;2024-01-11T04:38:51;9.50;99.90
59309;DHT22;48433;53.016;-2.260;2024-01-11T04:41:18;9.50;99.90
59309;DHT22;48433;53.016;-2.260;2024-01-11T04:43:46;9.50;99.90
59309;DHT22;48433;53.016;-2.260;2024-01-11T04:46:16;9.50;99.90
59309;DHT22;48433;53.016;-2.260;2024-01-11T04:48:44;9.50;99.90
59309;DHT22;48433;53.016;-2.260;2024-01-11T04:51:12;9.50;99.90
59309;DHT22;48433;53.016;-2.260;2024-01-11T04:53:40;9.50;99.90
59309;DHT22;48433;53.016;-2.260;2024-01-11T04:56:08;9.60;99.90
59309;DHT22;48433;53.016;-2.260;2024-01-11T04:58:36;9.60;99.90
59309;DHT22;48433;53.016;-2.260;2024-01-11T05:01:05;9.60;99.90
59309;DHT22;48433;53.016;-2.260;2024-01-11T05:03:33;9.60;99.90
59309;DHT22;48433;53.016;-2.260;2024-01-11T05:06:00;9.60;99.90
59309;DHT22;48433;53.016;-2.260;2024-01-11T05:08:28;9.50;99.90
59309;DHT22;48433;53.016;-2.260;2024-01-11T05:10:56;9.50;99.90
59309;DHT22;48433;53.016;-2.260;2024-01-11T05:13:23;9.60;99.90
59309;DHT22;48433;53.016;-2.260;2024-01-11T05:15:51;9.60;99.90
59309;DHT22;48433;53.016;-2.260;2024-01-11T05:18:18;9.50;99.90
59309;DHT22;48433;53.016;-2.260;2024-01-11T05:20:45;9.60;99.90
59309;DHT22;48433;53.016;-2.260;2024-01-11T05:23:13;9.60;99.90
59309;DHT22;48433;53.016;-2.260;2024-01-11T05:25:40;9.60;99.90
59309;DHT22;48433;53.016;-2.260;2024-01-11T05:28:07;9.60;99.90
59309;DHT22;48433;53.016;-2.260;2024-01-11T05:30:35;9.60;99.90
59309;DHT22;48433;53.016;-2.260;2024-01-11T05:33:02;9.70;99.90
59309;DHT22;48433;53.016;-2.260;2024-01-11T05:35:30;9.70;99.90
59309;DHT22;48433;53.016;-2.260;2024-01-11T05:37:58;9.70;99.90
59309;DHT22;48433;53.016;-2.260;2024-01-11T05:40:25;9.70;99.90
59309;DHT22;48433;53.016;-2.260;2024-01-11T05:42:52;9.80;99.90
59309;DHT22;48433;53.016;-2.260;2024-01-11T05:45:20;9.80;99.90
59309;DHT22;48433;53.016;-2.260;2024-01-11T05:47:57;9.80;99.90
59309;DHT22;48433;53.016;-2.260;2024-01-11T05:50:25;9.80;99.90
59309;DHT22;48433;53.016;-2.260;2024-01-11T05:52:52;9.80;99.90
59309;DHT22;48433;53.016;-2.260;2024-01-11T05:55:21;9.80;99.90
59309;DHT22;48433;53.016;-2.260;2024-01-11T05:57:48;9.70;99.90
59309;DHT22;48433;53.016;-2.260;2024-01-11T06:00:15;9.70;99.90
59309;DHT22;48433;53.016;-2.260;2024-01-11T06:02:43;9.60;99.90
59309;DHT22;48433;53.016;-2.260;2024-01-11T06:05:10;9.60;99.90
59309;DHT22;48433;53.016;-2.260;2024-01-11T06:07:39;9.50;99.90
59309;DHT22;48433;53.016;-2.260;2024-01-11T06:10:07;9.40;99.90
59309;DHT22;48433;53.016;-2.260;2024-01-11T06:12:35;9.40;99.90
59309;DHT22;48433;53.016;-2.260;2024-01-11T06:15:03;6.90;99.90
59309;DHT22;48433;53.016;-2.260;2024-01-11T06:17:30;9.30;99.90
59309;DHT22;48433;53.016;-2.260;2024-01-11T06:19:58;9.30;99.90
59309;DHT22;48433;53.016;-2.260;2024-01-11T06:22:25;9.30;99.90
59309;DHT22;48433;53.016;-2.260;2024-01-11T06:24:53;9.20;99.90
59309;DHT22;48433;53.016;-2.260;2024-01-11T06:27:20;9.20;99.90
59309;DHT22;48433;53.016;-2.260;2024-01-11T06:29:47;9.10;99.90
59309;DHT22;48433;53.016;-2.260;2024-01-11T06:32:15;9.10;99.90
59309;DHT22;48433;53.016;-2.260;2024-01-11T06:34:42;9.10;99.90
59309;DHT22;48433;53.016;-2.260;2024-01-11T06:37:13;9.10;99.90
59309;DHT22;48433;53.016;-2.260;2024-01-11T06:39:40;9.00;99.90
59309;DHT22;48433;53.016;-2.260;2024-01-11T06:42:07;9.00;99.90
59309;DHT22;48433;53.016;-2.260;2024-01-11T06:44:35;9.00;99.90
59309;DHT22;48433;53.016;-2.260;2024-01-11T06:47:02;9.00;99.90
59309;DHT22;48433;53.016;-2.260;2024-01-11T06:49:31;8.90;99.90
59309;DHT22;48433;53.016;-2.260;2024-01-11T06:51:58;8.90;99.90
59309;DHT22;48433;53.016;-2.260;2024-01-11T06:54:26;8.90;99.90
59309;DHT22;48433;53.016;-2.260;2024-01-11T06:56:53;8.90;99.90
59309;DHT22;48433;53.016;-2.260;2024-01-11T06:59:20;8.90;99.90
59309;DHT22;48433;53.016;-2.260;2024-01-11T07:01:50;8.90;99.90
59309;DHT22;48433;53.016;-2.260;2024-01-11T07:04:18;9.00;99.90
59309;DHT22;48433;53.016;-2.260;2024-01-11T07:06:45;9.10;99.90
59309;DHT22;48433;53.016;-2.260;2024-01-11T07:09:13;9.20;99.90
59309;DHT22;48433;53.016;-2.260;2024-01-11T07:11:41;9.20;99.90
59309;DHT22;48433;53.016;-2.260;2024-01-11T07:14:09;9.30;99.90
59309;DHT22;48433;53.016;-2.260;2024-01-11T07:16:36;9.30;99.90
59309;DHT22;48433;53.016;-2.260;2024-01-11T07:19:04;9.40;99.90
59309;DHT22;48433;53.016;-2.260;2024-01-11T07:21:32;8.60;99.90
59309;DHT22;48433;53.016;-2.260;2024-01-11T07:23:59;9.50;99.90
59309;DHT22;48433;53.016;-2.260;2024-01-11T07:26:27;9.50;99.90
59309;DHT22;48433;53.016;-2.260;2024-01-11T07:28:54;9.60;99.90
59309;DHT22;48433;53.016;-2.260;2024-01-11T07:31:22;9.60;99.90
59309;DHT22;48433;53.016;-2.260;2024-01-11T07:33:49;9.60;99.90
59309;DHT22;48433;53.016;-2.260;2024-01-11T07:36:17;9.60;99.90
59309;DHT22;48433;53.016;-2.260;2024-01-11T07:38:45;9.60;99.90
59309;DHT22;48433;53.016;-2.260;2024-01-11T07:41:12;9.60;99.90
59309;DHT22;48433;53.016;-2.260;2024-01-11T07:43:40;9.60;99.90
59309;DHT22;48433;53.016;-2.260;2024-01-11T07:46:20;9.60;99.90
59309;DHT22;48433;53.016;-2.260;2024-01-11T07:49:02;9.70;99.90
59309;DHT22;48433;53.016;-2.260;2024-01-11T07:51:30;9.70;99.90
59309;DHT22;48433;53.016;-2.260;2024-01-11T07:53:57;9.70;99.90
59309;DHT22;48433;53.016;-2.260;2024-01-11T07:56:26;9.70;99.90
59309;DHT22;48433;53.016;-2.260;2024-01-11T07:58:53;9.70;99.90
59309;DHT22;48433;53.016;-2.260;2024-01-11T08:01:20;9.70;99.90
59309;DHT22;48433;53.016;-2.260;2024-01-11T08:03:48;9.70;99.90
59309;DHT22;48433;53.016;-2.260;2024-01-11T08:06:19;9.80;99.90
59309;DHT22;48433;53.016;-2.260;2024-01-11T08:08:47;9.80;99.90
59309;DHT22;48433;53.016;-2.260;2024-01-11T08:11:19;9.80;99.90
59309;DHT22;48433;53.016;-2.260;2024-01-11T08:13:47;9.80;99.90
59309;DHT22;48433;53.016;-2.260;2024-01-11T08:16:15;9.80;99.90
59309;DHT22;48433;53.016;-2.260;2024-01-11T08:18:43;9.80;99.90
59309;DHT22;48433;53.016;-2.260;2024-01-11T08:21:11;13.20;99.90
59309;DHT22;48433;53.016;-2.260;2024-01-11T08:23:41;9.80;99.90
59309;DHT22;48433;53.016;-2.260;2024-01-11T08:26:14;9.80;99.90
59309;DHT22;48433;53.016;-2.260;2024-01-11T08:28:42;9.90;99.90
59309;DHT22;48433;53.016;-2.260;2024-01-11T08:31:09;9.80;99.90
59309;DHT22;48433;53.016;-2.260;2024-01-11T08:33:37;9.90;99.90
59309;DHT22;48433;53.016;-2.260;2024-01-11T08:36:05;9.90;99.90
59309;DHT22;48433;53.016;-2.260;2024-01-11T08:38:34;9.90;99.90
59309;DHT22;48433;53.016;-2.260;2024-01-11T08:41:03;10.60;99.90
59309;DHT22;48433;53.016;-2.260;2024-01-11T08:43:31;9.80;99.90
59309;DHT22;48433;53.016;-2.260;2024-01-11T08:45:58;9.80;99.90
59309;DHT22;48433;53.016;-2.260;2024-01-11T08:48:26;9.80;99.90
59309;DHT22;48433;53.016;-2.260;2024-01-11T08:50:54;9.80;99.90
59309;DHT22;48433;53.016;-2.260;2024-01-11T08:53:22;9.80;99.90
59309;DHT22;48433;53.016;-2.260;2024-01-11T08:55:49;9.80;99.90
59309;DHT22;48433;53.016;-2.260;2024-01-11T08:58:17;9.80;99.90
59309;DHT22;48433;53.016;-2.260;2024-01-11T09:00:45;9.90;99.90
59309;DHT22;48433;53.016;-2.260;2024-01-11T09:03:13;9.90;99.90
59309;DHT22;48433;53.016;-2.260;2024-01-11T09:05:42;9.90;99.90
59309;DHT22;48433;53.016;-2.260;2024-01-11T09:08:10;9.90;99.90
59309;DHT22;48433;53.016;-2.260;2024-01-11T09:10:38;9.90;99.90
59309;DHT22;48433;53.016;-2.260;2024-01-11T09:13:05;9.90;99.90
59309;DHT22;48433;53.016;-2.260;2024-01-11T09:15:33;10.00;99.90
59309;DHT22;48433;53.016;-2.260;2024-01-11T09:18:00;10.10;99.90
59309;DHT22;48433;53.016;-2.260;2024-01-11T09:20:28;10.10;99.90
59309;DHT22;48433;53.016;-2.260;2024-01-11T09:22:55;10.10;99.90
59309;DHT22;48433;53.016;-2.260;2024-01-11T09:25:23;10.10;99.90
59309;DHT22;48433;53.016;-2.260;2024-01-11T09:27:51;10.20;99.90
59309;DHT22;48433;53.016;-2.260;2024-01-11T09:30:18;10.20;99.90
59309;DHT22;48433;53.016;-2.260;2024-01-11T09:32:45;10.20;99.90
59309;DHT22;48433;53.016;-2.260;2024-01-11T09:35:13;10.20;99.90
59309;DHT22;48433;53.016;-2.260;2024-01-11T09:37:43;10.20;99.90
59309;DHT22;48433;53.016;-2.260;2024-01-11T09:40:13;10.30;99.90
59309;DHT22;48433;53.016;-2.260;2024-01-11T09:42:40;10.30;99.90
59309;DHT22;48433;53.016;-2.260;2024-01-11T09:45:17;10.30;99.90
59309;DHT22;48433;53.016;-2.260;2024-01-11T09:47:45;10.40;99.90
59309;DHT22;48433;53.016;-2.260;2024-01-11T09:50:13;10.40;99.90
59309;DHT22;48433;53.016;-2.260;2024-01-11T09:52:49;10.40;99.90
59309;DHT22;48433;53.016;-2.260;2024-01-11T09:55:17;10.50;99.90
59309;DHT22;48433;53.016;-2.260;2024-01-11T09:57:45;10.40;99.90
59309;DHT22;48433;53.016;-2.260;2024-01-11T10:00:16;10.40;99.90
59309;DHT22;48433;53.016;-2.260;2024-01-11T10:02:46;10.40;99.90
59309;DHT22;48433;53.016;-2.260;2024-01-11T10:05:15;10.40;99.90
59309;DHT22;48433;53.016;-2.260;2024-01-11T10:07:43;10.50;99.90
59309;DHT22;48433;53.016;-2.260;2024-01-11T10:10:10;10.50;99.90
59309;DHT22;48433;53.016;-2.260;2024-01-11T10:12:38;10.50;99.90
59309;DHT22;48433;53.016;-2.260;2024-01-11T10:15:06;10.50;99.90
59309;DHT22;48433;53.016;-2.260;2024-01-11T10:17:42;10.50;99.90
59309;DHT22;48433;53.016;-2.260;2024-01-11T10:20:12;10.60;99.90
59309;DHT22;48433;53.016;-2.260;2024-01-11T10:22:41;10.50;99.90
59309;DHT22;48433;53.016;-2.260;2024-01-11T10:25:12;10.60;99.90
59309;DHT22;48433;53.016;-2.260;2024-01-11T10:27:40;10.60;99.90
59309;DHT22;48433;53.016;-2.260;2024-01-11T10:30:12;10.60;99.90
59309;DHT22;48433;53.016;-2.260;2024-01-11T10:32:47;10.60;99.90
59309;DHT22;48433;53.016;-2.260;2024-01-11T10:35:16;10.60;99.90
59309;DHT22;48433;53.016;-2.260;2024-01-11T10:37:45;10.60;99.90
59309;DHT22;48433;53.016;-2.260;2024-01-11T10:40:16;10.70;99.90
59309;DHT22;48433;53.016;-2.260;2024-01-11T10:42:45;10.70;99.90
59309;DHT22;48433;53.016;-2.260;2024-01-11T10:45:17;10.80;99.90
59309;DHT22;48433;53.016;-2.260;2024-01-11T10:50:12;10.90;99.90
59309;DHT22;48433;53.016;-2.260;2024-01-11T10:52:42;10.90;99.90
59309;DHT22;48433;53.016;-2.260;2024-01-11T10:55:14;10.90;99.90
59309;DHT22;48433;53.016;-2.260;2024-01-11T10:57:41;11.00;99.90
59309;DHT22;48433;53.016;-2.260;2024-01-11T11:00:09;11.00;99.90
59309;DHT22;48433;53.016;-2.260;2024-01-11T11:02:39;11.00;99.90
59309;DHT22;48433;53.016;-2.260;2024-01-11T11:05:07;11.10;99.90
59309;DHT22;48433;53.016;-2.260;2024-01-11T11:07:37;11.20;99.90
59309;DHT22;48433;53.016;-2.260;2024-01-11T11:10:05;11.20;99.90
59309;DHT22;48433;53.016;-2.260;2024-01-11T11:12:33;11.20;99.90
59309;DHT22;48433;53.016;-2.260;2024-01-11T11:15:01;11.20;99.90
59309;DHT22;48433;53.016;-2.260;2024-01-11T11:17:29;11.30;99.90
59309;DHT22;48433;53.016;-2.260;2024-01-11T11:19:57;11.30;99.90
59309;DHT22;48433;53.016;-2.260;2024-01-11T11:22:26;11.30;99.90
59309;DHT22;48433;53.016;-2.260;2024-01-11T11:25:03;11.40;99.90
59309;DHT22;48433;53.016;-2.260;2024-01-11T11:27:33;11.40;99.90
59309;DHT22;48433;53.016;-2.260;2024-01-11T11:30:00;11.40;99.90
59309;DHT22;48433;53.016;-2.260;2024-01-11T11:32:34;11.40;99.90
59309;DHT22;48433;53.016;-2.260;2024-01-11T11:35:02;11.50;99.90
59309;DHT22;48433;53.016;-2.260;2024-01-11T11:37:30;11.50;99.90
59309;DHT22;48433;53.016;-2.260;2024-01-11T11:39:59;11.60;99.90
59309;DHT22;48433;53.016;-2.260;2024-01-11T11:42:30;11.60;99.90
59309;DHT22;48433;53.016;-2.260;2024-01-11T11:44:57;11.70;99.90
59309;DHT22;48433;53.016;-2.260;2024-01-11T11:47:25;11.50;99.90
59309;DHT22;48433;53.016;-2.260;2024-01-11T11:50:09;11.70;99.90
59309;DHT22;48433;53.016;-2.260;2024-01-11T11:52:37;11.70;99.90
59309;DHT22;48433;53.016;-2.260;2024-01-11T11:55:05;11.70;99.90
59309;DHT22;48433;53.016;-2.260;2024-01-11T11:57:34;11.80;99.90
59309;DHT22;48433;53.016;-2.260;2024-01-11T12:00:02;11.80;99.90
59309;DHT22;48433;53.016;-2.260;2024-01-11T12:02:38;11.80;99.90
59309;DHT22;48433;53.016;-2.260;2024-01-11T12:05:06;11.80;99.90
59309;DHT22;48433;53.016;-2.260;2024-01-11T12:07:33;11.70;99.90
59309;DHT22;48433;53.016;-2.260;2024-01-11T12:10:01;11.70;99.90
59309;DHT22;48433;53.016;-2.260;2024-01-11T12:12:28;11.70;99.90
59309;DHT22;48433;53.016;-2.260;2024-01-11T12:14:57;11.70;99.90
59309;DHT22;48433;53.016;-2.260;2024-01-11T12:17:26;11.70;99.90
59309;DHT22;48433;53.016;-2.260;2024-01-11T12:19:54;11.80;99.90
59309;DHT22;48433;53.016;-2.260;2024-01-11T12:22:25;11.80;99.90
59309;DHT22;48433;53.016;-2.260;2024-01-11T12:24:52;11.80;99.90
59309;DHT22;48433;53.016;-2.260;2024-01-11T12:27:20;11.80;99.90
59309;DHT22;48433;53.016;-2.260;2024-01-11T12:29:48;11.80;99.90
59309;DHT22;48433;53.016;-2.260;2024-01-11T12:32:25;11.80;99.90
59309;DHT22;48433;53.016;-2.260;2024-01-11T12:34:53;11.80;99.90
59309;DHT22;48433;53.016;-2.260;2024-01-11T12:37:21;11.80;99.90
59309;DHT22;48433;53.016;-2.260;2024-01-11T12:39:49;11.70;99.90
59309;DHT22;48433;53.016;-2.260;2024-01-11T12:42:16;11.70;99.90
59309;DHT22;48433;53.016;-2.260;2024-01-11T12:44:44;11.70;99.90
59309;DHT22;48433;53.016;-2.260;2024-01-11T12:47:13;11.70;99.90
59309;DHT22;48433;53.016;-2.260;2024-01-11T12:49:43;11.60;99.90
59309;DHT22;48433;53.016;-2.260;2024-01-11T12:52:16;11.70;99.90
59309;DHT22;48433;53.016;-2.260;2024-01-11T12:54:44;11.70;99.90
59309;DHT22;48433;53.016;-2.260;2024-01-11T12:57:17;11.70;99.90
59309;DHT22;48433;53.016;-2.260;2024-01-11T12:59:47;11.70;99.90
59309;DHT22;48433;53.016;-2.260;2024-01-11T13:02:15;11.70;99.90
59309;DHT22;48433;53.016;-2.260;2024-01-11T13:04:45;11.70;99.90
59309;DHT22;48433;53.016;-2.260;2024-01-11T13:07:13;11.70;99.90
59309;DHT22;48433;53.016;-2.260;2024-01-11T13:09:43;11.70;99.90
59309;DHT22;48433;53.016;-2.260;2024-01-11T13:12:10;11.70;99.90
59309;DHT22;48433;53.016;-2.260;2024-01-11T13:14:37;11.60;99.90
59309;DHT22;48433;53.016;-2.260;2024-01-11T13:17:06;11.60;99.90
59309;DHT22;48433;53.016;-2.260;2024-01-11T13:19:35;11.60;99.90
59309;DHT22;48433;53.016;-2.260;2024-01-11T13:22:02;11.70;99.90
59309;DHT22;48433;53.016;-2.260;2024-01-11T13:24:30;11.70;99.90
59309;DHT22;48433;53.016;-2.260;2024-01-11T13:26:57;11.70;99.90
59309;DHT22;48433;53.016;-2.260;2024-01-11T13:29:25;11.70;99.90
59309;DHT22;48433;53.016;-2.260;2024-01-11T13:31:53;11.70;99.90
59309;DHT22;48433;53.016;-2.260;2024-01-11T13:34:20;11.70;99.90
59309;DHT22;48433;53.016;-2.260;2024-01-11T13:36:47;11.70;99.90
59309;DHT22;48433;53.016;-2.260;2024-01-11T13:39:15;11.70;99.90
59309;DHT22;48433;53.016;-2.260;2024-01-11T13:41:45;11.70;99.90
59309;DHT22;48433;53.016;-2.260;2024-01-11T13:44:13;11.70;99.90
59309;DHT22;48433;53.016;-2.260;2024-01-11T13:46:40;11.70;99.90
59309;DHT22;48433;53.016;-2.260;2024-01-11T13:49:07;11.70;99.90
59309;DHT22;48433;53.016;-2.260;2024-01-11T13:51:35;11.70;99.90
59309;DHT22;48433;53.016;-2.260;2024-01-11T13:54:19;11.70;99.90
59309;DHT22;48433;53.016;-2.260;2024-01-11T13:56:50;11.80;99.90
59309;DHT22;48433;53.016;-2.260;2024-01-11T13:59:19;11.80;99.90
59309;DHT22;48433;53.016;-2.260;2024-01-11T14:01:47;11.80;99.90
59309;DHT22;48433;53.016;-2.260;2024-01-11T14:04:14;11.80;99.90
59309;DHT22;48433;53.016;-2.260;2024-01-11T14:06:41;11.80;99.90
59309;DHT22;48433;53.016;-2.260;2024-01-11T14:09:09;11.80;99.90
59309;DHT22;48433;53.016;-2.260;2024-01-11T14:11:37;11.80;99.90
59309;DHT22;48433;53.016;-2.260;2024-01-11T14:14:04;11.80;99.90
59309;DHT22;48433;53.016;-2.260;2024-01-11T14:16:32;11.80;99.90
59309;DHT22;48433;53.016;-2.260;2024-01-11T14:18:59;11.80;99.90
59309;DHT22;48433;53.016;-2.260;2024-01-11T14:21:28;11.80;99.90
59309;DHT22;48433;53.016;-2.260;2024-01-11T14:23:55;11.70;99.90
59309;DHT22;48433;53.016;-2.260;2024-01-11T14:26:23;11.70;99.90
59309;DHT22;48433;53.016;-2.260;2024-01-11T14:28:50;11.70;99.90
59309;DHT22;48433;53.016;-2.260;2024-01-11T14:31:18;11.70;99.90
59309;DHT22;48433;53.016;-2.260;2024-01-11T14:33:45;11.70;99.90
59309;DHT22;48433;53.016;-2.260;2024-01-11T14:36:13;11.60;99.90
59309;DHT22;48433;53.016;-2.260;2024-01-11T14:38:44;11.60;99.90
59309;DHT22;48433;53.016;-2.260;2024-01-11T14:41:12;11.60;99.90
59309;DHT22;48433;53.016;-2.260;2024-01-11T14:43:40;11.60;99.90
59309;DHT22;48433;53.016;-2.260;2024-01-11T14:46:07;11.60;99.90
59309;DHT22;48433;53.016;-2.260;2024-01-11T14:48:37;11.60;99.90
59309;DHT22;48433;53.016;-2.260;2024-01-11T14:51:05;11.60;99.90
59309;DHT22;48433;53.016;-2.260;2024-01-11T14:53:35;11.60;99.90
59309;DHT22;48433;53.016;-2.260;2024-01-11T14:56:02;11.60;99.90
59309;DHT22;48433;53.016;-2.260;2024-01-11T14:58:30;11.60;99.90
59309;DHT22;48433;53.016;-2.260;2024-01-11T15:00:57;11.60;99.90
59309;DHT22;48433;53.016;-2.260;2024-01-11T15:03:25;11.60;99.90
59309;DHT22;48433;53.016;-2.260;2024-01-11T15:05:53;11.50;99.90
59309;DHT22;48433;53.016;-2.260;2024-01-11T15:08:20;11.60;99.90
59309;DHT22;48433;53.016;-2.260;2024-01-11T15:10:48;11.60;99.90
59309;DHT22;48433;53.016;-2.260;2024-01-11T15:13:15;11.60;99.90
59309;DHT22;48433;53.016;-2.260;2024-01-11T15:15:43;11.50;99.90
59309;DHT22;48433;53.016;-2.260;2024-01-11T15:18:10;11.50;99.90
59309;DHT22;48433;53.016;-2.260;2024-01-11T15:20:38;11.50;99.90
59309;DHT22;48433;53.016;-2.260;2024-01-11T15:23:08;11.50;99.90
59309;DHT22;48433;53.016;-2.260;2024-01-11T15:25:36;11.50;99.90
59309;DHT22;48433;53.016;-2.260;2024-01-11T15:28:04;11.50;99.90
59309;DHT22;48433;53.016;-2.260;2024-01-11T15:30:31;11.50;99.90
59309;DHT22;48433;53.016;-2.260;2024-01-11T15:32:59;11.50;99.90